sensor_id;sensor_type;location;lat;lon;timestamp;pressure;altitude;pressure_sealevel;temperature;humidity
63281;BME280;49406;51.044;3.766;2023-04-06T00:02:25;101815.21;;;8.26;58.23
63281;BME280;49406;51.044;3.766;2023-04-06T00:04:57;101813.07;;;8.20;58.73
63281;BME280;49406;51.044;3.766;2023-04-06T00:07:30;101814.23;;;8.11;58.98
63281;BME280;49406;51.044;3.766;2023-04-06T00:10:07;101808.14;;;8.07;59.38
63281;BME280;49406;51.044;3.766;2023-04-06T00:12:40;101804.92;;;8.00;59.67
63281;BME280;49406;51.044;3.766;2023-04-06T00:15:12;101802.17;;;7.95;60.12
63281;BME280;49406;51.044;3.766;2023-04-06T00:17:45;101796.48;;;7.92;60.37
63281;BME280;49406;51.044;3.766;2023-04-06T00:20:18;101799.21;;;7.90;60.52
63281;BME280;49406;51.044;3.766;2023-04-06T00:22:50;101797.88;;;7.87;60.75
63281;BME280;49406;51.044;3.766;2023-04-06T00:25:23;101792.04;;;7.85;61.08
63281;BME280;49406;51.044;3.766;2023-04-06T00:27:55;101790.70;;;7.81;61.32
63281;BME280;49406;51.044;3.766;2023-04-06T00:30:28;101783.96;;;7.77;61.47
63281;BME280;49406;51.044;3.766;2023-04-06T00:33:00;101784.34;;;7.73;61.72
63281;BME280;49406;51.044;3.766;2023-04-06T00:35:33;101783.02;;;7.71;62.20
63281;BME280;49406;51.044;3.766;2023-04-06T00:38:05;101781.38;;;7.68;62.59
63281;BME280;49406;51.044;3.766;2023-04-06T00:40:38;101777.70;;;7.68;62.60
63281;BME280;49406;51.044;3.766;2023-04-06T00:43:11;101779.24;;;7.67;62.78
63281;BME280;49406;51.044;3.766;2023-04-06T00:45:44;101777.07;;;7.65;63.18
63281;BME280;49406;51.044;3.766;2023-04-06T00:48:17;101774.64;;;7.64;63.52
63281;BME280;49406;51.044;3.766;2023-04-06T00:50:49;101773.89;;;7.63;63.89
63281;BME280;49406;51.044;3.766;2023-04-06T00:53:22;101772.67;;;7.63;63.79
63281;BME280;49406;51.044;3.766;2023-04-06T00:55:54;101772.55;;;7.65;63.82
63281;BME280;49406;51.044;3.766;2023-04-06T00:58:27;101772.11;;;7.67;63.80
63281;BME280;49406;51.044;3.766;2023-04-06T01:01:00;101770.30;;;7.65;63.94
63281;BME280;49406;51.044;3.766;2023-04-06T01:03:32;101762.73;;;7.62;64.30
63281;BME280;49406;51.044;3.766;2023-04-06T01:06:05;101762.67;;;7.61;64.65
63281;BME280;49406;51.044;3.766;2023-04-06T01:08:38;101763.69;;;7.60;64.85
63281;BME280;49406;51.044;3.766;2023-04-06T01:11:10;101757.21;;;7.59;65.06
63281;BME280;49406;51.044;3.766;2023-04-06T01:13:43;101753.14;;;7.57;65.35
63281;BME280;49406;51.044;3.766;2023-04-06T01:16:15;101750.61;;;7.54;65.59
63281;BME280;49406;51.044;3.766;2023-04-06T01:18:48;101748.69;;;7.54;65.63
63281;BME280;49406;51.044;3.766;2023-04-06T01:21:21;101748.91;;;7.55;65.79
63281;BME280;49406;51.044;3.766;2023-04-06T01:23:54;101745.45;;;7.56;66.07
63281;BME280;49406;51.044;3.766;2023-04-06T01:26:26;101739.16;;;7.55;66.25
63281;BME280;49406;51.044;3.766;2023-04-06T01:29:01;101738.05;;;7.54;66.77
63281;BME280;49406;51.044;3.766;2023-04-06T01:31:34;101736.61;;;7.52;67.04
63281;BME280;49406;51.044;3.766;2023-04-06T01:34:07;101733.39;;;7.50;67.42
63281;BME280;49406;51.044;3.766;2023-04-06T01:36:39;101732.39;;;7.45;67.45
63281;BME280;49406;51.044;3.766;2023-04-06T01:39:12;101729.50;;;7.42;67.72
63281;BME280;49406;51.044;3.766;2023-04-06T01:41:44;101729.23;;;7.40;68.03
63281;BME280;49406;51.044;3.766;2023-04-06T01:44:19;101727.20;;;7.37;68.24
63281;BME280;49406;51.044;3.766;2023-04-06T01:46:51;101724.37;;;7.35;68.51
63281;BME280;49406;51.044;3.766;2023-04-06T01:49:24;101722.37;;;7.33;68.51
63281;BME280;49406;51.044;3.766;2023-04-06T01:51:56;101717.45;;;7.31;68.83
63281;BME280;49406;51.044;3.766;2023-04-06T01:54:29;101715.14;;;7.30;69.35
63281;BME280;49406;51.044;3.766;2023-04-06T01:57:01;101709.05;;;7.30;70.03
63281;BME280;49406;51.044;3.766;2023-04-06T01:59:34;101707.80;;;7.29;70.07
63281;BME280;49406;51.044;3.766;2023-04-06T02:02:06;101708.61;;;7.28;70.35
63281;BME280;49406;51.044;3.766;2023-04-06T02:04:39;101701.97;;;7.26;70.52
63281;BME280;49406;51.044;3.766;2023-04-06T02:07:11;101699.35;;;7.26;71.14
63281;BME280;49406;51.044;3.766;2023-04-06T02:09:44;101701.63;;;7.26;71.58
63281;BME280;49406;51.044;3.766;2023-04-06T02:12:16;101699.35;;;7.26;71.77
63281;BME280;49406;51.044;3.766;2023-04-06T02:14:49;101696.34;;;7.24;72.01
63281;BME280;49406;51.044;3.766;2023-04-06T02:17:21;101693.55;;;7.24;72.20
63281;BME280;49406;51.044;3.766;2023-04-06T02:19:54;101695.11;;;7.24;72.27
63281;BME280;49406;51.044;3.766;2023-04-06T02:22:26;101693.33;;;7.23;72.60
63281;BME280;49406;51.044;3.766;2023-04-06T02:24:59;101691.51;;;7.21;73.00
63281;BME280;49406;51.044;3.766;2023-04-06T02:27:32;101690.25;;;7.20;73.48
63281;BME280;49406;51.044;3.766;2023-04-06T02:30:06;101688.29;;;7.19;73.98
63281;BME280;49406;51.044;3.766;2023-04-06T02:32:39;101689.58;;;7.21;73.92
63281;BME280;49406;51.044;3.766;2023-04-06T02:35:11;101688.60;;;7.22;74.08
63281;BME280;49406;51.044;3.766;2023-04-06T02:37:44;101687.41;;;7.23;74.28
63281;BME280;49406;51.044;3.766;2023-04-06T02:40:16;101682.58;;;7.24;74.49
63281;BME280;49406;51.044;3.766;2023-04-06T02:42:49;101677.04;;;7.24;74.76
63281;BME280;49406;51.044;3.766;2023-04-06T02:45:21;101681.77;;;7.26;74.91
63281;BME280;49406;51.044;3.766;2023-04-06T02:47:54;101679.68;;;7.25;75.22
63281;BME280;49406;51.044;3.766;2023-04-06T02:50:27;101678.23;;;7.24;75.32
63281;BME280;49406;51.044;3.766;2023-04-06T02:52:59;101675.96;;;7.24;75.58
63281;BME280;49406;51.044;3.766;2023-04-06T02:55:31;101677.05;;;7.25;76.04
63281;BME280;49406;51.044;3.766;2023-04-06T02:58:04;101675.51;;;7.26;76.36
63281;BME280;49406;51.044;3.766;2023-04-06T03:00:37;101675.40;;;7.28;76.86
63281;BME280;49406;51.044;3.766;2023-04-06T03:03:10;101672.52;;;7.30;77.03
63281;BME280;49406;51.044;3.766;2023-04-06T03:05:42;101673.87;;;7.34;77.39
63281;BME280;49406;51.044;3.766;2023-04-06T03:08:15;101674.51;;;7.37;77.66
63281;BME280;49406;51.044;3.766;2023-04-06T03:10:47;101672.04;;;7.41;78.87
63281;BME280;49406;51.044;3.766;2023-04-06T03:13:20;101672.31;;;7.60;79.20
63281;BME280;49406;51.044;3.766;2023-04-06T03:15:52;101670.91;;;7.70;79.53
63281;BME280;49406;51.044;3.766;2023-04-06T03:18:25;101668.66;;;7.70;79.50
63281;BME280;49406;51.044;3.766;2023-04-06T03:20:58;101667.29;;;7.71;80.80
63281;BME280;49406;51.044;3.766;2023-04-06T03:23:31;101669.80;;;7.73;80.86
63281;BME280;49406;51.044;3.766;2023-04-06T03:26:04;101666.16;;;7.73;81.67
63281;BME280;49406;51.044;3.766;2023-04-06T03:28:37;101667.05;;;7.74;82.31
63281;BME280;49406;51.044;3.766;2023-04-06T03:31:09;101667.25;;;7.74;81.95
63281;BME280;49406;51.044;3.766;2023-04-06T03:33:42;101662.66;;;7.73;82.59
63281;BME280;49406;51.044;3.766;2023-04-06T03:36:14;101662.64;;;7.72;83.31
63281;BME280;49406;51.044;3.766;2023-04-06T03:38:47;101664.41;;;7.73;83.28
63281;BME280;49406;51.044;3.766;2023-04-06T03:41:19;101659.19;;;7.78;82.81
63281;BME280;49406;51.044;3.766;2023-04-06T03:43:52;101652.14;;;7.87;83.44
63281;BME280;49406;51.044;3.766;2023-04-06T03:46:25;101649.08;;;7.89;82.88
63281;BME280;49406;51.044;3.766;2023-04-06T03:48:57;101642.89;;;7.86;82.92
63281;BME280;49406;51.044;3.766;2023-04-06T03:51:30;101647.48;;;7.82;83.85
63281;BME280;49406;51.044;3.766;2023-04-06T03:54:03;101648.97;;;7.80;84.36
63281;BME280;49406;51.044;3.766;2023-04-06T03:56:35;101644.91;;;7.78;84.43
63281;BME280;49406;51.044;3.766;2023-04-06T03:59:08;101644.02;;;7.77;85.83
63281;BME280;49406;51.044;3.766;2023-04-06T04:01:40;101641.54;;;7.76;86.01
63281;BME280;49406;51.044;3.766;2023-04-06T04:04:13;101644.32;;;7.76;86.14
63281;BME280;49406;51.044;3.766;2023-04-06T04:06:45;101645.54;;;7.76;86.29
63281;BME280;49406;51.044;3.766;2023-04-06T04:09:17;101647.15;;;7.77;87.28
63281;BME280;49406;51.044;3.766;2023-04-06T04:11:50;101644.75;;;7.90;87.15
63281;BME280;49406;51.044;3.766;2023-04-06T04:14:23;101646.55;;;7.91;87.74
63281;BME280;49406;51.044;3.766;2023-04-06T04:16:55;101646.89;;;7.86;87.95
63281;BME280;49406;51.044;3.766;2023-04-06T04:19:27;101648.38;;;7.83;88.11
63281;BME280;49406;51.044;3.766;2023-04-06T04:22:00;101647.81;;;7.82;89.02
63281;BME280;49406;51.044;3.766;2023-04-06T04:24:32;101644.83;;;7.81;89.13
63281;BME280;49406;51.044;3.766;2023-04-06T04:27:05;101647.92;;;7.80;89.70
63281;BME280;49406;51.044;3.766;2023-04-06T04:29:37;101649.27;;;7.84;90.26
63281;BME280;49406;51.044;3.766;2023-04-06T04:32:10;101651.67;;;7.94;90.57
63281;BME280;49406;51.044;3.766;2023-04-06T04:34:43;101651.38;;;7.90;90.85
63281;BME280;49406;51.044;3.766;2023-04-06T04:37:15;101651.92;;;7.85;91.72
63281;BME280;49406;51.044;3.766;2023-04-06T04:39:47;101654.80;;;7.83;92.24
63281;BME280;49406;51.044;3.766;2023-04-06T04:42:20;101655.27;;;7.81;91.87
63281;BME280;49406;51.044;3.766;2023-04-06T04:44:52;101651.33;;;7.89;91.98
63281;BME280;49406;51.044;3.766;2023-04-06T04:47:25;101653.45;;;7.95;92.24
63281;BME280;49406;51.044;3.766;2023-04-06T04:49:57;101649.66;;;7.91;92.45
63281;BME280;49406;51.044;3.766;2023-04-06T04:52:30;101646.88;;;7.86;93.05
63281;BME280;49406;51.044;3.766;2023-04-06T04:55:03;101646.14;;;7.84;93.27
63281;BME280;49406;51.044;3.766;2023-04-06T04:57:36;101644.34;;;7.82;93.50
63281;BME280;49406;51.044;3.766;2023-04-06T05:00:10;101645.18;;;7.81;93.84
63281;BME280;49406;51.044;3.766;2023-04-06T05:02:43;101644.30;;;7.81;95.22
63281;BME280;49406;51.044;3.766;2023-04-06T05:05:15;101642.93;;;7.92;95.20
63281;BME280;49406;51.044;3.766;2023-04-06T05:07:48;101647.02;;;7.95;95.20
63281;BME280;49406;51.044;3.766;2023-04-06T05:10:20;101650.23;;;7.92;95.33
63281;BME280;49406;51.044;3.766;2023-04-06T05:12:53;101646.83;;;7.89;96.28
63281;BME280;49406;51.044;3.766;2023-04-06T05:15:26;101647.96;;;7.87;99.18
63281;BME280;49406;51.044;3.766;2023-04-06T05:17:58;101649.49;;;7.86;99.14
63281;BME280;49406;51.044;3.766;2023-04-06T05:20:31;101647.16;;;7.94;99.82
63281;BME280;49406;51.044;3.766;2023-04-06T05:23:04;101646.42;;;7.93;99.94
63281;BME280;49406;51.044;3.766;2023-04-06T05:25:36;101646.64;;;7.83;100.00
63281;BME280;49406;51.044;3.766;2023-04-06T05:28:09;101646.59;;;7.76;100.00
63281;BME280;49406;51.044;3.766;2023-04-06T05:30:42;101644.27;;;7.70;100.00
63281;BME280;49406;51.044;3.766;2023-04-06T05:33:15;101647.09;;;7.66;100.00
63281;BME280;49406;51.044;3.766;2023-04-06T05:35:48;101640.89;;;7.73;100.00
63281;BME280;49406;51.044;3.766;2023-04-06T05:38:20;101638.96;;;7.72;100.00
63281;BME280;49406;51.044;3.766;2023-04-06T05:40:53;101642.88;;;7.70;100.00
63281;BME280;49406;51.044;3.766;2023-04-06T05:43:25;101643.23;;;7.64;100.00
63281;BME280;49406;51.044;3.766;2023-04-06T05:45:58;101641.45;;;7.58;100.00
63281;BME280;49406;51.044;3.766;2023-04-06T05:48:30;101644.23;;;7.52;100.00
63281;BME280;49406;51.044;3.766;2023-04-06T05:51:03;101642.87;;;7.48;100.00
63281;BME280;49406;51.044;3.766;2023-04-06T05:53:38;101640.48;;;7.44;100.00
63281;BME280;49406;51.044;3.766;2023-04-06T05:56:11;101640.02;;;7.51;100.00
63281;BME280;49406;51.044;3.766;2023-04-06T05:58:43;101638.30;;;7.52;100.00
63281;BME280;49406;51.044;3.766;2023-04-06T06:01:16;101633.52;;;7.49;100.00
63281;BME280;49406;51.044;3.766;2023-04-06T06:03:48;101635.05;;;7.48;100.00
63281;BME280;49406;51.044;3.766;2023-04-06T06:06:21;101637.83;;;7.48;100.00
63281;BME280;49406;51.044;3.766;2023-04-06T06:08:53;101630.35;;;7.43;100.00
63281;BME280;49406;51.044;3.766;2023-04-06T06:11:26;101630.91;;;7.39;100.00
63281;BME280;49406;51.044;3.766;2023-04-06T06:13:58;101627.28;;;7.35;100.00
63281;BME280;49406;51.044;3.766;2023-04-06T06:16:30;101627.70;;;7.32;100.00
63281;BME280;49406;51.044;3.766;2023-04-06T06:19:03;101625.95;;;7.31;100.00
63281;BME280;49406;51.044;3.766;2023-04-06T06:21:36;101622.91;;;7.39;100.00
63281;BME280;49406;51.044;3.766;2023-04-06T06:24:08;101626.29;;;7.41;100.00
63281;BME280;49406;51.044;3.766;2023-04-06T06:26:41;101623.94;;;7.39;100.00
63281;BME280;49406;51.044;3.766;2023-04-06T06:29:15;101620.52;;;7.36;100.00
63281;BME280;49406;51.044;3.766;2023-04-06T06:31:47;101622.73;;;7.28;100.00
63281;BME280;49406;51.044;3.766;2023-04-06T06:34:20;101620.31;;;7.24;100.00
63281;BME280;49406;51.044;3.766;2023-04-06T06:36:52;101618.50;;;7.22;100.00
63281;BME280;49406;51.044;3.766;2023-04-06T06:39:27;101615.49;;;7.31;100.00
63281;BME280;49406;51.044;3.766;2023-04-06T06:41:59;101615.23;;;7.33;100.00
63281;BME280;49406;51.044;3.766;2023-04-06T06:44:33;101613.17;;;7.34;100.00
63281;BME280;49406;51.044;3.766;2023-04-06T06:47:05;101605.92;;;7.31;100.00
63281;BME280;49406;51.044;3.766;2023-04-06T06:49:38;101607.90;;;7.33;100.00
63281;BME280;49406;51.044;3.766;2023-04-06T06:52:10;101603.61;;;7.35;100.00
63281;BME280;49406;51.044;3.766;2023-04-06T06:54:43;101601.67;;;7.39;100.00
63281;BME280;49406;51.044;3.766;2023-04-06T06:57:15;101599.50;;;7.52;100.00
63281;BME280;49406;51.044;3.766;2023-04-06T06:59:48;101593.43;;;7.58;100.00
63281;BME280;49406;51.044;3.766;2023-04-06T07:02:20;101591.15;;;7.63;100.00
63281;BME280;49406;51.044;3.766;2023-04-06T07:04:53;101589.64;;;7.71;100.00
63281;BME280;49406;51.044;3.766;2023-04-06T07:07:25;101582.17;;;7.75;100.00
63281;BME280;49406;51.044;3.766;2023-04-06T07:09:58;101578.70;;;7.82;100.00
63281;BME280;49406;51.044;3.766;2023-04-06T07:12:30;101575.48;;;7.85;100.00
63281;BME280;49406;51.044;3.766;2023-04-06T07:15:04;101577.30;;;7.93;100.00
63281;BME280;49406;51.044;3.766;2023-04-06T07:17:37;101573.69;;;8.00;100.00
63281;BME280;49406;51.044;3.766;2023-04-06T07:20:11;101574.23;;;8.06;100.00
63281;BME280;49406;51.044;3.766;2023-04-06T07:22:44;101573.21;;;8.07;100.00
63281;BME280;49406;51.044;3.766;2023-04-06T07:25:16;101568.55;;;8.15;100.00
63281;BME280;49406;51.044;3.766;2023-04-06T07:27:49;101570.16;;;8.16;100.00
63281;BME280;49406;51.044;3.766;2023-04-06T07:30:22;101569.95;;;8.21;100.00
63281;BME280;49406;51.044;3.766;2023-04-06T07:32:56;101571.11;;;8.19;100.00
63281;BME280;49406;51.044;3.766;2023-04-06T07:35:30;101572.53;;;8.14;100.00
63281;BME280;49406;51.044;3.766;2023-04-06T07:38:03;101569.45;;;8.09;100.00
63281;BME280;49406;51.044;3.766;2023-04-06T07:40:36;101575.69;;;8.14;100.00
63281;BME280;49406;51.044;3.766;2023-04-06T07:43:09;101572.35;;;8.13;100.00
63281;BME280;49406;51.044;3.766;2023-04-06T07:45:41;101573.23;;;8.08;100.00
63281;BME280;49406;51.044;3.766;2023-04-06T07:48:14;101571.86;;;8.03;100.00
63281;BME280;49406;51.044;3.766;2023-04-06T07:50:46;101572.16;;;8.02;100.00
63281;BME280;49406;51.044;3.766;2023-04-06T07:53:19;101574.38;;;8.06;100.00
63281;BME280;49406;51.044;3.766;2023-04-06T07:55:51;101569.08;;;8.08;100.00
63281;BME280;49406;51.044;3.766;2023-04-06T07:58:24;101569.97;;;8.09;100.00
63281;BME280;49406;51.044;3.766;2023-04-06T08:00:56;101567.98;;;8.07;100.00
63281;BME280;49406;51.044;3.766;2023-04-06T08:03:29;101565.88;;;8.01;100.00
63281;BME280;49406;51.044;3.766;2023-04-06T08:06:02;101564.16;;;8.02;100.00
63281;BME280;49406;51.044;3.766;2023-04-06T08:08:35;101564.77;;;8.05;100.00
63281;BME280;49406;51.044;3.766;2023-04-06T08:11:07;101566.42;;;8.13;100.00
63281;BME280;49406;51.044;3.766;2023-04-06T08:13:40;101563.95;;;8.19;100.00
63281;BME280;49406;51.044;3.766;2023-04-06T08:16:12;101562.89;;;8.18;100.00
63281;BME280;49406;51.044;3.766;2023-04-06T08:18:45;101563.05;;;8.18;100.00
63281;BME280;49406;51.044;3.766;2023-04-06T08:21:18;101556.72;;;8.15;100.00
63281;BME280;49406;51.044;3.766;2023-04-06T08:23:50;101560.05;;;8.15;100.00
63281;BME280;49406;51.044;3.766;2023-04-06T08:26:23;101560.27;;;8.23;100.00
63281;BME280;49406;51.044;3.766;2023-04-06T08:28:55;101562.11;;;8.27;100.00
63281;BME280;49406;51.044;3.766;2023-04-06T08:31:28;101557.96;;;8.27;100.00
63281;BME280;49406;51.044;3.766;2023-04-06T08:34:01;101562.37;;;8.24;100.00
63281;BME280;49406;51.044;3.766;2023-04-06T08:36:34;101557.98;;;8.23;100.00
63281;BME280;49406;51.044;3.766;2023-04-06T08:39:06;101561.52;;;8.30;100.00
63281;BME280;49406;51.044;3.766;2023-04-06T08:41:39;101558.52;;;8.34;100.00
63281;BME280;49406;51.044;3.766;2023-04-06T08:44:13;101560.01;;;8.38;100.00
63281;BME280;49406;51.044;3.766;2023-04-06T08:46:46;101558.45;;;8.38;100.00
63281;BME280;49406;51.044;3.766;2023-04-06T08:49:18;101556.60;;;8.29;100.00
63281;BME280;49406;51.044;3.766;2023-04-06T08:51:51;101557.63;;;8.34;100.00
63281;BME280;49406;51.044;3.766;2023-04-06T08:54:24;101558.59;;;8.37;100.00
63281;BME280;49406;51.044;3.766;2023-04-06T08:56:57;101553.71;;;8.31;100.00
63281;BME280;49406;51.044;3.766;2023-04-06T08:59:30;101555.11;;;8.25;100.00
63281;BME280;49406;51.044;3.766;2023-04-06T09:02:04;101551.36;;;8.29;100.00
63281;BME280;49406;51.044;3.766;2023-04-06T09:04:37;101552.56;;;8.34;100.00
63281;BME280;49406;51.044;3.766;2023-04-06T09:07:10;101545.14;;;8.36;100.00
63281;BME280;49406;51.044;3.766;2023-04-06T09:09:42;101546.08;;;8.38;100.00
63281;BME280;49406;51.044;3.766;2023-04-06T09:12:26;101543.27;;;8.37;100.00
63281;BME280;49406;51.044;3.766;2023-04-06T09:14:59;101543.16;;;8.45;100.00
63281;BME280;49406;51.044;3.766;2023-04-06T09:17:33;101541.21;;;8.63;100.00
63281;BME280;49406;51.044;3.766;2023-04-06T09:20:06;101536.42;;;8.73;100.00
63281;BME280;49406;51.044;3.766;2023-04-06T09:22:40;101537.32;;;8.81;100.00
63281;BME280;49406;51.044;3.766;2023-04-06T09:25:19;101536.20;;;8.78;100.00
63281;BME280;49406;51.044;3.766;2023-04-06T09:27:59;101535.06;;;8.74;100.00
63281;BME280;49406;51.044;3.766;2023-04-06T09:30:32;101539.49;;;8.84;100.00
63281;BME280;49406;51.044;3.766;2023-04-06T09:33:04;101537.63;;;8.92;100.00
63281;BME280;49406;51.044;3.766;2023-04-06T09:35:38;101538.69;;;8.92;100.00
63281;BME280;49406;51.044;3.766;2023-04-06T09:38:12;101536.13;;;8.89;100.00
63281;BME280;49406;51.044;3.766;2023-04-06T09:40:51;101534.73;;;8.81;100.00
63281;BME280;49406;51.044;3.766;2023-04-06T09:43:26;101529.45;;;8.79;100.00
63281;BME280;49406;51.044;3.766;2023-04-06T09:46:01;101525.16;;;8.89;100.00
63281;BME280;49406;51.044;3.766;2023-04-06T09:48:35;101522.55;;;8.89;100.00
63281;BME280;49406;51.044;3.766;2023-04-06T09:51:12;101527.09;;;8.90;100.00
63281;BME280;49406;51.044;3.766;2023-04-06T09:53:51;101522.02;;;8.89;100.00
63281;BME280;49406;51.044;3.766;2023-04-06T09:56:25;101523.06;;;8.82;100.00
63281;BME280;49406;51.044;3.766;2023-04-06T09:59:04;101522.81;;;8.86;100.00
63281;BME280;49406;51.044;3.766;2023-04-06T10:01:37;101516.52;;;8.86;100.00
63281;BME280;49406;51.044;3.766;2023-04-06T10:04:24;101514.35;;;8.82;100.00
63281;BME280;49406;51.044;3.766;2023-04-06T10:07:00;101514.23;;;8.78;100.00
63281;BME280;49406;51.044;3.766;2023-04-06T10:09:36;101515.05;;;8.75;100.00
63281;BME280;49406;51.044;3.766;2023-04-06T10:12:10;101506.08;;;8.79;100.00
63281;BME280;49406;51.044;3.766;2023-04-06T10:14:43;101504.86;;;8.87;100.00
63281;BME280;49406;51.044;3.766;2023-04-06T10:17:16;101502.86;;;8.90;100.00
63281;BME280;49406;51.044;3.766;2023-04-06T10:19:53;101501.02;;;8.92;100.00
63281;BME280;49406;51.044;3.766;2023-04-06T10:22:32;101496.36;;;8.94;100.00
63281;BME280;49406;51.044;3.766;2023-04-06T10:25:08;101493.98;;;8.91;100.00
63281;BME280;49406;51.044;3.766;2023-04-06T10:27:41;101492.27;;;8.91;100.00
63281;BME280;49406;51.044;3.766;2023-04-06T10:30:16;101490.72;;;8.99;100.00
63281;BME280;49406;51.044;3.766;2023-04-06T10:32:49;101489.73;;;9.02;100.00
63281;BME280;49406;51.044;3.766;2023-04-06T10:35:21;101492.57;;;9.04;100.00
63281;BME280;49406;51.044;3.766;2023-04-06T10:38:03;101494.65;;;9.03;100.00
63281;BME280;49406;51.044;3.766;2023-04-06T10:40:37;101492.23;;;8.97;100.00
63281;BME280;49406;51.044;3.766;2023-04-06T10:43:12;101489.83;;;8.91;100.00
63281;BME280;49406;51.044;3.766;2023-04-06T10:45:44;101492.84;;;8.93;100.00
63281;BME280;49406;51.044;3.766;2023-04-06T10:48:35;101486.23;;;8.94;100.00
63281;BME280;49406;51.044;3.766;2023-04-06T10:51:10;101485.57;;;8.95;100.00
63281;BME280;49406;51.044;3.766;2023-04-06T10:53:45;101477.38;;;8.95;100.00
63281;BME280;49406;51.044;3.766;2023-04-06T10:56:22;101479.33;;;8.97;100.00
63281;BME280;49406;51.044;3.766;2023-04-06T10:58:55;101476.34;;;9.03;100.00
63281;BME280;49406;51.044;3.766;2023-04-06T11:01:28;101473.48;;;9.08;100.00
63281;BME280;49406;51.044;3.766;2023-04-06T11:04:00;101471.95;;;9.17;100.00
63281;BME280;49406;51.044;3.766;2023-04-06T11:06:33;101463.45;;;9.25;100.00
63281;BME280;49406;51.044;3.766;2023-04-06T11:09:05;101466.02;;;9.31;100.00
63281;BME280;49406;51.044;3.766;2023-04-06T11:12:00;101463.23;;;9.39;100.00
63281;BME280;49406;51.044;3.766;2023-04-06T11:14:32;101463.66;;;9.50;100.00
63281;BME280;49406;51.044;3.766;2023-04-06T11:17:05;101459.95;;;9.56;100.00
63281;BME280;49406;51.044;3.766;2023-04-06T11:19:38;101455.69;;;9.60;100.00
63281;BME280;49406;51.044;3.766;2023-04-06T11:22:10;101453.37;;;9.66;100.00
63281;BME280;49406;51.044;3.766;2023-04-06T11:24:43;101451.27;;;9.65;100.00
63281;BME280;49406;51.044;3.766;2023-04-06T11:27:16;101450.05;;;9.58;100.00
63281;BME280;49406;51.044;3.766;2023-04-06T11:29:50;101449.29;;;9.55;100.00
63281;BME280;49406;51.044;3.766;2023-04-06T11:32:22;101446.35;;;9.56;100.00
63281;BME280;49406;51.044;3.766;2023-04-06T11:34:58;101445.66;;;9.64;100.00
63281;BME280;49406;51.044;3.766;2023-04-06T11:37:31;101442.02;;;9.74;100.00
63281;BME280;49406;51.044;3.766;2023-04-06T11:40:09;101442.84;;;9.80;100.00
63281;BME280;49406;51.044;3.766;2023-04-06T11:42:42;101441.58;;;9.87;100.00
63281;BME280;49406;51.044;3.766;2023-04-06T11:45:16;101436.65;;;9.85;100.00
63281;BME280;49406;51.044;3.766;2023-04-06T11:47:56;101438.48;;;9.80;100.00
63281;BME280;49406;51.044;3.766;2023-04-06T11:50:33;101433.17;;;9.76;100.00
63281;BME280;49406;51.044;3.766;2023-04-06T11:53:06;101430.29;;;9.73;100.00
63281;BME280;49406;51.044;3.766;2023-04-06T11:55:38;101424.84;;;9.72;100.00
63281;BME280;49406;51.044;3.766;2023-04-06T11:58:11;101424.41;;;9.68;100.00
63281;BME280;49406;51.044;3.766;2023-04-06T12:00:44;101421.92;;;9.65;100.00
63281;BME280;49406;51.044;3.766;2023-04-06T12:03:18;101422.43;;;9.57;100.00
63281;BME280;49406;51.044;3.766;2023-04-06T12:05:50;101413.48;;;9.55;100.00
63281;BME280;49406;51.044;3.766;2023-04-06T12:08:23;101412.05;;;9.60;100.00
63281;BME280;49406;51.044;3.766;2023-04-06T12:10:57;101412.92;;;9.60;100.00
63281;BME280;49406;51.044;3.766;2023-04-06T12:13:31;101411.66;;;9.58;100.00
63281;BME280;49406;51.044;3.766;2023-04-06T12:16:03;101408.80;;;9.56;100.00
63281;BME280;49406;51.044;3.766;2023-04-06T12:18:36;101408.66;;;9.57;100.00
63281;BME280;49406;51.044;3.766;2023-04-06T12:21:08;101408.60;;;9.55;100.00
63281;BME280;49406;51.044;3.766;2023-04-06T12:23:41;101407.25;;;9.57;100.00
63281;BME280;49406;51.044;3.766;2023-04-06T12:26:14;101407.50;;;9.59;100.00
63281;BME280;49406;51.044;3.766;2023-04-06T12:28:47;101408.08;;;9.62;100.00
63281;BME280;49406;51.044;3.766;2023-04-06T12:31:20;101412.36;;;9.67;100.00
63281;BME280;49406;51.044;3.766;2023-04-06T12:33:53;101409.71;;;9.65;100.00
63281;BME280;49406;51.044;3.766;2023-04-06T12:36:25;101403.61;;;9.66;100.00
63281;BME280;49406;51.044;3.766;2023-04-06T12:38:58;101405.43;;;9.70;100.00
63281;BME280;49406;51.044;3.766;2023-04-06T12:41:32;101400.17;;;9.69;100.00
63281;BME280;49406;51.044;3.766;2023-04-06T12:44:04;101399.02;;;9.72;100.00
63281;BME280;49406;51.044;3.766;2023-04-06T12:46:37;101400.20;;;9.78;100.00
63281;BME280;49406;51.044;3.766;2023-04-06T12:49:09;101399.11;;;9.85;100.00
63281;BME280;49406;51.044;3.766;2023-04-06T12:51:42;101404.16;;;9.85;100.00
63281;BME280;49406;51.044;3.766;2023-04-06T12:54:15;101403.09;;;9.84;100.00
63281;BME280;49406;51.044;3.766;2023-04-06T12:56:48;101394.54;;;9.83;100.00
63281;BME280;49406;51.044;3.766;2023-04-06T12:59:20;101393.25;;;9.80;100.00
63281;BME280;49406;51.044;3.766;2023-04-06T13:01:53;101393.27;;;9.81;100.00
63281;BME280;49406;51.044;3.766;2023-04-06T13:04:25;101392.66;;;9.86;100.00
63281;BME280;49406;51.044;3.766;2023-04-06T13:06:58;101390.66;;;9.91;100.00
63281;BME280;49406;51.044;3.766;2023-04-06T13:09:31;101390.94;;;9.96;100.00
63281;BME280;49406;51.044;3.766;2023-04-06T13:12:03;101394.63;;;9.97;100.00
63281;BME280;49406;51.044;3.766;2023-04-06T13:14:37;101393.95;;;9.98;100.00
63281;BME280;49406;51.044;3.766;2023-04-06T13:17:11;101392.83;;;9.93;100.00
63281;BME280;49406;51.044;3.766;2023-04-06T13:19:43;101391.09;;;9.94;100.00
63281;BME280;49406;51.044;3.766;2023-04-06T13:22:16;101387.77;;;9.93;100.00
63281;BME280;49406;51.044;3.766;2023-04-06T13:24:48;101383.27;;;9.96;100.00
63281;BME280;49406;51.044;3.766;2023-04-06T13:27:21;101375.69;;;10.03;100.00